Leesten, Netherlands
Current Conditions -  °F | °C
As of 7:25 PM on Thursday 29 Jan 2015 (Local Time) from EHDL Reporting Station
Light Snow Light Snow  
Wind Chill: 26°   Ceiling: 700
Heat Index: 32°   Visibility: 3mi
Dew Point: 32°   Wind: 7mph
Humidity: 100%   Direction: 210°SSW
Pressure: 28.79"   Gusts: NA
Location:  52.13°N, 6.23°E
Report Text: EHDL 291825Z AUTO 21006KT 5000 -SN FEW004 SCT005 BKN007 00/00 Q0975 YLO
Loading
Personal Weather Stations






























Interactive Weather Map New forecast layout! Learn more

10-Day Weather Forecast

Advertisements
Track Severe Weather on mobile